Time;durP1;ratioP1;P1;durP2;ratioP2;P2;SDS_P1;SDS_P2;PMS_P1;PMS_P2;Temp;Humidity;BMP_temperature;BMP_pressure;BME280_temperature;BME280_humidity;BME280_pressure;Samples;Min_cycle;Max_cycle;Signal;HPM_P1;HPM_P2
2023/10/27 00:01:39;;;;;;;29.17;14.05;;;9.30;99.90;;;;;;6307013;22;20457;-84
2023/10/27 00:04:05;;;;;;;30.27;13.68;;;9.20;99.90;;;;;;6305957;22;20149;-84
2023/10/27 00:06:32;;;;;;;32.22;14.20;;;9.10;99.90;;;;;;6306395;22;20022;-84
2023/10/27 00:08:58;;;;;;;32.03;14.60;;;9.20;99.90;;;;;;6279372;22;20065;-84
2023/10/27 00:11:25;;;;;;;33.63;14.95;;;9.10;99.90;;;;;;6278465;22;20370;-84
2023/10/27 00:13:51;;;;;;;31.70;15.50;;;9.20;99.90;;;;;;6279361;22;20011;-84
2023/10/27 00:16:17;;;;;;;34.17;15.88;;;10.10;99.90;;;;;;6278867;22;20026;-84
2023/10/27 00:18:43;;;;;;;35.03;14.95;;;9.20;99.90;;;;;;6278581;22;20023;-84
2023/10/27 00:21:09;;;;;;;34.92;15.63;;;9.20;99.90;;;;;;6306428;22;20015;-84
2023/10/27 00:23:34;;;;;;;35.90;15.52;;;9.20;99.90;;;;;;6279085;22;20102;-84
2023/10/27 00:26:00;;;;;;;34.88;15.70;;;9.30;99.90;;;;;;6305957;22;20019;-84
2023/10/27 00:28:26;;;;;;;33.40;16.07;;;9.30;99.90;;;;;;6279643;22;20348;-84
2023/10/27 00:30:52;;;;;;;33.57;15.33;;;9.30;99.90;;;;;;6308490;22;20015;-84
2023/10/27 00:33:29;;;;;;;34.37;15.53;;;9.30;99.90;;;;;;6280417;22;20007;-84
2023/10/27 00:35:55;;;;;;;35.20;15.43;;;9.30;99.90;;;;;;6281311;22;20101;-84
2023/10/27 00:38:21;;;;;;;36.03;15.47;;;10.50;99.90;;;;;;6280216;22;20016;-84
2023/10/27 00:40:47;;;;;;;35.27;14.80;;;9.30;99.90;;;;;;6281119;22;20051;-84
2023/10/27 00:43:17;;;;;;;34.93;15.53;;;9.30;99.90;;;;;;6308351;22;20335;-84
2023/10/27 00:45:53;;;;;;;33.93;15.47;;;9.30;99.90;;;;;;6307691;22;20019;-84
2023/10/27 00:48:20;;;;;;;32.53;14.17;;;9.30;99.90;;;;;;6280857;22;20025;-84
2023/10/27 00:50:47;;;;;;;34.10;14.25;;;9.30;99.90;;;;;;6280963;22;20015;-84
2023/10/27 00:53:17;;;;;;;36.85;15.75;;;9.30;99.90;;;;;;6280010;22;20117;-84
2023/10/27 00:55:43;;;;;;;32.88;14.75;;;9.40;99.90;;;;;;6280758;22;20319;-84
2023/10/27 00:58:09;;;;;;;32.88;14.48;;;10.00;99.90;;;;;;6281069;22;20057;-84
2023/10/27 01:00:35;;;;;;;34.85;15.27;;;9.40;99.90;;;;;;6279879;22;20023;-84
2023/10/27 01:03:01;;;;;;;36.85;15.40;;;9.40;99.90;;;;;;6308299;22;20011;-84
2023/10/27 01:05:27;;;;;;;33.85;15.27;;;9.40;99.90;;;;;;6308226;22;20508;-84
2023/10/27 01:07:52;;;;;;;37.90;15.77;;;9.40;99.90;;;;;;6307501;22;20018;-84
2023/10/27 01:10:19;;;;;;;31.77;14.90;;;10.40;99.90;;;;;;6280661;22;20344;-84
2023/10/27 01:12:50;;;;;;;31.95;14.38;;;9.40;99.90;;;;;;6280916;22;20065;-84
2023/10/27 01:15:22;;;;;;;35.22;15.32;;;9.40;99.90;;;;;;6279221;22;20034;-84
2023/10/27 01:17:48;;;;;;;34.28;16.40;;;10.30;99.90;;;;;;6280975;22;20016;-84
2023/10/27 01:20:13;;;;;;;33.78;15.70;;;10.10;99.90;;;;;;6279206;22;20344;-84
2023/10/27 01:22:49;;;;;;;35.23;16.50;;;9.30;99.90;;;;;;6280857;22;20015;-84
2023/10/27 01:25:16;;;;;;;35.17;15.83;;;9.40;99.90;;;;;;6307772;22;20019;-84
2023/10/27 01:27:42;;;;;;;35.80;15.87;;;9.30;99.90;;;;;;6280915;22;20119;-84
2023/10/27 01:30:09;;;;;;;33.45;16.52;;;9.30;99.90;;;;;;6280873;22;20025;-84
2023/10/27 01:32:36;;;;;;;31.05;15.75;;;9.30;99.90;;;;;;6280656;22;20041;-84
2023/10/27 01:35:02;;;;;;;36.20;16.08;;;10.10;99.90;;;;;;6279456;22;20438;-84
2023/10/27 01:37:28;;;;;;;34.38;15.80;;;9.30;99.90;;;;;;6280675;22;20103;-84
2023/10/27 01:39:56;;;;;;;38.33;16.17;;;9.70;99.90;;;;;;6280875;22;20391;-84
2023/10/27 01:42:22;;;;;;;33.92;15.10;;;9.40;99.90;;;;;;6306949;22;20030;-84
2023/10/27 01:44:48;;;;;;;34.97;16.02;;;9.40;99.90;;;;;;6308085;22;20030;-84
2023/10/27 01:47:13;;;;;;;35.03;15.30;;;9.30;99.90;;;;;;6307451;22;20015;-84
2023/10/27 01:49:39;;;;;;;33.33;14.52;;;9.40;99.90;;;;;;6279658;22;20334;-85
2023/10/27 01:52:05;;;;;;;32.35;15.57;;;10.00;99.90;;;;;;6280725;22;20073;-85
2023/10/27 01:54:30;;;;;;;34.70;14.18;;;9.40;99.90;;;;;;6280143;22;20023;-84
2023/10/27 01:56:56;;;;;;;31.73;14.93;;;10.40;99.90;;;;;;6279881;22;20027;-84
2023/10/27 01:59:21;;;;;;;29.52;14.60;;;9.40;99.90;;;;;;6280058;22;20023;-84
2023/10/27 02:01:47;;;;;;;31.98;15.27;;;9.60;99.90;;;;;;6279991;22;20054;-84
2023/10/27 02:04:13;;;;;;;33.67;15.07;;;10.60;99.90;;;;;;6279324;22;20086;-85
2023/10/27 02:06:38;;;;;;;29.88;14.45;;;9.70;99.90;;;;;;6280879;22;20361;-84
2023/10/27 02:09:04;;;;;;;32.03;13.98;;;10.60;99.90;;;;;;6280409;22;20011;-83
2023/10/27 02:11:30;;;;;;;31.08;13.70;;;9.40;99.90;;;;;;6278870;22;20092;-84
2023/10/27 02:13:55;;;;;;;29.42;13.57;;;9.40;99.90;;;;;;6307872;22;20467;-84
2023/10/27 02:16:21;;;;;;;30.48;14.20;;;9.30;99.90;;;;;;6279818;22;20027;-84
2023/10/27 02:18:47;;;;;;;31.27;14.43;;;10.40;99.90;;;;;;6307413;22;20323;-84
2023/10/27 02:21:12;;;;;;;28.48;12.65;;;10.50;99.90;;;;;;6280487;22;20007;-84
2023/10/27 02:23:38;;;;;;;28.60;13.30;;;9.30;99.90;;;;;;6306892;22;20449;-84
2023/10/27 02:26:03;;;;;;;28.75;13.23;;;10.20;99.90;;;;;;6280229;22;20020;-84
2023/10/27 02:28:29;;;;;;;30.83;13.57;;;9.40;99.90;;;;;;6279801;22;20019;-84
2023/10/27 02:30:54;;;;;;;28.15;13.13;;;9.30;99.90;;;;;;6279195;22;20077;-84
2023/10/27 02:33:20;;;;;;;29.10;13.73;;;9.70;99.90;;;;;;6280331;22;20331;-84
2023/10/27 02:35:46;;;;;;;28.67;12.65;;;9.30;99.90;;;;;;6307536;22;20018;-84
2023/10/27 02:38:12;;;;;;;28.90;12.10;;;10.50;99.90;;;;;;6306460;22;20447;-84
2023/10/27 02:40:38;;;;;;;28.50;12.95;;;9.30;99.90;;;;;;6307465;22;20011;-84
2023/10/27 02:43:03;;;;;;;28.33;12.82;;;9.40;99.90;;;;;;6307429;22;20026;-84
2023/10/27 02:45:29;;;;;;;25.05;12.38;;;9.30;99.90;;;;;;6278597;22;20019;-83
2023/10/27 02:47:55;;;;;;;26.98;12.75;;;9.30;99.90;;;;;;6280263;22;20063;-84
2023/10/27 02:50:21;;;;;;;27.45;12.23;;;10.40;99.90;;;;;;6279473;22;20086;-84
2023/10/27 02:52:47;;;;;;;28.40;12.85;;;10.00;99.90;;;;;;6306751;22;20092;-84
2023/10/27 02:55:12;;;;;;;29.63;12.75;;;9.20;99.90;;;;;;6279717;22;20011;-84
2023/10/27 02:57:38;;;;;;;27.92;12.23;;;10.30;99.90;;;;;;6307420;22;20378;-83
2023/10/27 03:00:06;;;;;;;26.50;12.07;;;9.20;99.90;;;;;;6278747;22;20033;-84
2023/10/27 03:02:32;;;;;;;28.42;13.10;;;9.20;99.90;;;;;;6306772;22;20443;-84
2023/10/27 03:04:58;;;;;;;27.50;12.13;;;9.20;99.90;;;;;;6307685;22;20369;-84
2023/10/27 03:07:24;;;;;;;27.00;11.90;;;9.40;99.90;;;;;;6278715;22;20022;-84
2023/10/27 03:09:50;;;;;;;28.70;12.82;;;9.20;99.90;;;;;;6279881;22;20332;-84
2023/10/27 03:12:16;;;;;;;24.67;11.80;;;9.10;99.90;;;;;;6279265;22;20019;-84
2023/10/27 03:14:42;;;;;;;24.30;10.98;;;9.20;99.90;;;;;;6306144;22;20086;-84
2023/10/27 03:17:08;;;;;;;25.20;11.25;;;10.20;99.90;;;;;;6279374;22;20051;-84
2023/10/27 03:19:33;;;;;;;25.30;11.38;;;9.10;99.90;;;;;;6279473;22;20477;-84
2023/10/27 03:22:01;;;;;;;24.55;10.45;;;9.10;99.90;;;;;;6278700;22;20026;-84
2023/10/27 03:24:26;;;;;;;22.58;10.90;;;10.10;99.90;;;;;;6279114;22;20023;-84
2023/10/27 03:26:52;;;;;;;26.48;11.32;;;9.10;99.90;;;;;;6278604;22;20395;-84
2023/10/27 03:29:18;;;;;;;24.65;11.18;;;9.10;99.90;;;;;;6279566;22;20022;-84
2023/10/27 03:31:43;;;;;;;25.05;11.80;;;9.60;99.90;;;;;;6279482;22;20046;-84
2023/10/27 03:34:09;;;;;;;26.77;11.88;;;9.30;99.90;;;;;;6306174;22;20458;-84
2023/10/27 03:36:34;;;;;;;25.45;11.27;;;9.00;99.90;;;;;;6306756;22;20019;-84
2023/10/27 03:39:00;;;;;;;25.70;11.30;;;9.00;99.90;;;;;;6279465;22;20011;-84
2023/10/27 03:41:26;;;;;;;25.70;10.90;;;9.00;99.90;;;;;;6277807;22;20027;-84
2023/10/27 03:43:52;;;;;;;25.95;11.68;;;8.90;99.90;;;;;;6306991;22;20099;-84
2023/10/27 03:46:18;;;;;;;25.27;11.43;;;9.00;99.90;;;;;;6306015;22;20019;-84
2023/10/27 03:48:44;;;;;;;24.98;11.25;;;8.90;99.90;;;;;;6278841;22;20053;-83
2023/10/27 03:51:11;;;;;;;25.67;11.65;;;8.90;99.90;;;;;;6279199;22;20046;-83
2023/10/27 03:53:37;;;;;;;26.48;11.13;;;8.90;99.90;;;;;;6279238;22;20030;-83
2023/10/27 03:56:03;;;;;;;27.17;11.65;;;9.90;99.90;;;;;;6278314;22;20030;-84
2023/10/27 03:58:29;;;;;;;26.30;11.52;;;8.90;99.90;;;;;;6278681;22;20054;-83
2023/10/27 04:00:55;;;;;;;25.90;11.32;;;8.90;99.90;;;;;;6278616;22;20050;-84
2023/10/27 04:03:21;;;;;;;26.92;11.02;;;8.90;99.90;;;;;;6277447;22;20027;-84
2023/10/27 04:05:46;;;;;;;28.23;11.90;;;8.90;99.90;;;;;;6306522;22;20368;-84
2023/10/27 04:08:12;;;;;;;27.45;11.88;;;9.70;99.90;;;;;;6277409;22;20022;-84
2023/10/27 04:10:37;;;;;;;28.15;11.80;;;8.90;99.90;;;;;;6278337;22;20023;-84
2023/10/27 04:13:04;;;;;;;29.73;11.68;;;8.90;99.90;;;;;;6278995;22;20355;-83
2023/10/27 04:15:29;;;;;;;26.92;11.48;;;8.90;99.90;;;;;;6278579;22;20030;-83
2023/10/27 04:17:55;;;;;;;32.42;13.63;;;8.90;99.90;;;;;;6278504;22;20019;-83
2023/10/27 04:20:21;;;;;;;30.52;12.45;;;8.90;99.90;;;;;;6279045;22;20370;-84
2023/10/27 04:22:47;;;;;;;32.00;13.30;;;8.90;99.90;;;;;;6279403;22;20447;-84
2023/10/27 04:25:12;;;;;;;27.38;12.85;;;9.00;99.90;;;;;;6278082;22;20015;-84
2023/10/27 04:27:38;;;;;;;30.20;12.73;;;9.00;99.90;;;;;;6279304;22;20024;-84
2023/10/27 04:30:07;;;;;;;29.25;12.10;;;9.20;99.90;;;;;;6278419;22;20125;-83
2023/10/27 04:32:34;;;;;;;31.15;13.25;;;8.90;99.90;;;;;;6306315;22;20020;-83
2023/10/27 04:35:00;;;;;;;29.63;13.38;;;9.90;99.90;;;;;;6279342;22;20019;-84
2023/10/27 04:37:27;;;;;;;31.38;13.07;;;8.90;99.90;;;;;;6277996;22;20054;-84
2023/10/27 04:39:54;;;;;;;31.48;13.52;;;8.90;99.90;;;;;;6278881;22;20061;-83
2023/10/27 04:42:20;;;;;;;34.30;14.10;;;8.90;99.90;;;;;;6278830;22;20011;-84
2023/10/27 04:44:46;;;;;;;30.30;13.27;;;8.90;99.90;;;;;;6278458;22;20072;-84
2023/10/27 04:47:11;;;;;;;32.20;13.00;;;8.90;99.90;;;;;;6278799;22;20011;-84
2023/10/27 04:49:37;;;;;;;31.95;14.57;;;8.90;99.90;;;;;;6279276;22;20094;-83
2023/10/27 04:52:03;;;;;;;31.40;14.02;;;8.90;99.90;;;;;;6278297;22;20432;-84
2023/10/27 04:54:28;;;;;;;32.67;13.98;;;9.50;99.90;;;;;;6306275;22;20080;-84
2023/10/27 04:56:54;;;;;;;29.85;13.27;;;8.90;99.90;;;;;;6279196;22;20106;-84
2023/10/27 04:59:20;;;;;;;31.15;13.57;;;8.90;99.90;;;;;;6277704;22;20045;-83
2023/10/27 05:01:48;;;;;;;32.25;13.52;;;9.80;99.90;;;;;;6278935;22;20027;-84
2023/10/27 05:04:14;;;;;;;33.57;14.07;;;10.20;99.90;;;;;;6278712;22;20022;-84
2023/10/27 05:07:05;;;;;;;32.03;14.03;;;8.90;99.90;;;;;;6278295;22;20019;-84
2023/10/27 05:09:32;;;;;;;35.37;14.93;;;8.90;99.90;;;;;;6278774;22;20016;-84
2023/10/27 05:11:57;;;;;;;32.10;13.80;;;9.90;99.90;;;;;;6279415;22;20038;-84
2023/10/27 05:14:23;;;;;;;31.60;13.70;;;8.80;99.90;;;;;;6278590;22;20022;-84
2023/10/27 05:16:49;;;;;;;34.83;14.10;;;8.80;99.90;;;;;;6280775;22;20019;-84
2023/10/27 05:19:15;;;;;;;30.58;13.60;;;8.80;99.90;;;;;;6280094;22;20011;-84
2023/10/27 05:21:40;;;;;;;36.10;14.90;;;8.80;99.90;;;;;;6280220;22;20418;-84
2023/10/27 05:24:06;;;;;;;34.90;14.25;;;8.80;99.90;;;;;;6308539;22;20019;-84
2023/10/27 05:26:31;;;;;;;34.08;13.93;;;8.80;99.90;;;;;;6279617;22;20051;-84
2023/10/27 05:28:59;;;;;;;33.22;13.75;;;8.80;99.90;;;;;;6281363;22;20347;-83
2023/10/27 05:31:25;;;;;;;31.50;13.50;;;9.20;99.90;;;;;;6280598;22;20015;-83
2023/10/27 05:33:50;;;;;;;32.70;13.45;;;8.80;99.90;;;;;;6279526;22;20086;-84
2023/10/27 05:36:16;;;;;;;33.45;13.98;;;8.70;99.90;;;;;;6306860;22;20015;-84
2023/10/27 05:38:41;;;;;;;30.95;13.63;;;9.80;99.90;;;;;;6280681;22;20042;-84
2023/10/27 05:41:07;;;;;;;31.77;14.52;;;9.50;99.90;;;;;;6307268;22;20478;-85
2023/10/27 05:43:33;;;;;;;32.35;13.35;;;8.70;99.90;;;;;;6280265;22;20011;-84
2023/10/27 05:45:58;;;;;;;33.53;13.93;;;9.00;99.90;;;;;;6280753;22;20317;-84
2023/10/27 05:48:24;;;;;;;37.20;14.40;;;8.70;99.90;;;;;;6279301;22;20443;-85
2023/10/27 05:50:49;;;;;;;29.20;13.30;;;8.70;99.90;;;;;;6280652;22;20102;-84
2023/10/27 05:53:15;;;;;;;31.33;13.65;;;8.70;99.90;;;;;;6280182;22;20026;-84
2023/10/27 05:55:43;;;;;;;34.42;14.07;;;8.70;99.90;;;;;;6279629;22;20339;-84
2023/10/27 05:58:08;;;;;;;32.40;13.70;;;8.70;99.90;;;;;;6280594;22;20054;-84
2023/10/27 06:00:34;;;;;;;31.88;13.48;;;8.70;99.90;;;;;;6280339;22;20015;-84
2023/10/27 06:02:59;;;;;;;32.45;14.65;;;8.70;99.90;;;;;;6279728;22;20023;-84
2023/10/27 06:05:25;;;;;;;30.05;13.05;;;8.70;99.90;;;;;;6280162;22;20042;-84
2023/10/27 06:07:51;;;;;;;30.05;12.77;;;8.70;99.90;;;;;;6308198;22;20016;-84
2023/10/27 06:10:18;;;;;;;33.20;14.20;;;8.70;99.90;;;;;;6279185;22;20025;-84
2023/10/27 06:12:43;;;;;;;32.67;13.82;;;8.70;99.90;;;;;;6307885;22;20337;-84
2023/10/27 06:15:09;;;;;;;34.13;14.20;;;8.70;99.90;;;;;;6279984;22;20019;-84
2023/10/27 06:17:35;;;;;;;34.13;14.18;;;8.70;99.90;;;;;;6279333;22;20019;-84
2023/10/27 06:20:02;;;;;;;35.67;14.05;;;8.70;99.90;;;;;;6307647;22;20011;-83
2023/10/27 06:22:28;;;;;;;34.03;13.90;;;8.70;99.90;;;;;;6279874;22;20011;-83
2023/10/27 06:24:54;;;;;;;33.65;14.23;;;8.70;99.90;;;;;;6279333;22;20020;-85
2023/10/27 06:27:19;;;;;;;34.97;14.63;;;8.70;99.90;;;;;;6307119;22;20343;-86
2023/10/27 06:29:45;;;;;;;31.38;14.23;;;8.70;99.90;;;;;;6279434;22;20451;-86
2023/10/27 06:32:11;;;;;;;33.60;13.80;;;9.90;99.90;;;;;;6279885;22;20015;-86
2023/10/27 06:34:37;;;;;;;34.58;14.43;;;8.70;99.90;;;;;;6280164;22;20455;-85
2023/10/27 06:37:03;;;;;;;34.75;15.25;;;8.70;99.90;;;;;;6279452;22;20019;-86
2023/10/27 06:39:28;;;;;;;34.22;14.40;;;8.70;99.90;;;;;;6279509;22;20019;-85
2023/10/27 06:41:54;;;;;;;30.38;11.95;;;9.20;99.90;;;;;;6280292;22;20019;-86
2023/10/27 06:44:19;;;;;;;32.65;14.38;;;8.70;99.90;;;;;;6306364;22;20033;-86
2023/10/27 06:46:45;;;;;;;31.33;13.18;;;8.70;99.90;;;;;;6307423;22;20031;-86
2023/10/27 06:49:13;;;;;;;30.38;13.80;;;9.30;99.90;;;;;;6279667;22;20335;-86
2023/10/27 06:51:38;;;;;;;31.23;13.88;;;8.70;99.90;;;;;;6278716;22;20044;-85
2023/10/27 06:54:04;;;;;;;33.95;13.60;;;8.70;99.90;;;;;;6307349;22;20073;-85
2023/10/27 06:56:29;;;;;;;30.13;13.45;;;8.70;99.90;;;;;;6279421;22;20026;-86
2023/10/27 06:58:57;;;;;;;31.83;14.25;;;8.80;99.90;;;;;;6278775;22;20045;-85
2023/10/27 07:01:22;;;;;;;35.13;14.32;;;9.50;99.90;;;;;;6306744;22;20019;-86
2023/10/27 07:03:48;;;;;;;33.05;13.90;;;9.90;99.90;;;;;;6307504;22;20414;-86
2023/10/27 07:06:13;;;;;;;33.75;14.80;;;8.70;99.90;;;;;;6278568;22;20039;-86
2023/10/27 07:08:39;;;;;;;32.47;14.38;;;9.00;99.90;;;;;;6280540;22;20016;-86
2023/10/27 07:11:05;;;;;;;31.63;13.80;;;8.80;99.90;;;;;;6276691;22;20027;-85
2023/10/27 07:13:30;;;;;;;29.25;13.43;;;10.00;99.90;;;;;;6278584;22;20069;-86
2023/10/27 07:15:56;;;;;;;29.73;13.63;;;8.80;99.90;;;;;;6282805;22;20015;-92
2023/10/27 07:18:22;;;;;;;29.20;13.07;;;8.80;99.90;;;;;;6285545;22;20015;-87
2023/10/27 07:20:48;;;;;;;30.48;13.73;;;8.80;99.90;;;;;;6278903;22;20015;-88
2023/10/27 07:23:16;;;;;;;30.02;13.40;;;8.80;99.90;;;;;;6306753;22;20081;-86
2023/10/27 07:25:42;;;;;;;30.73;13.38;;;8.80;99.90;;;;;;6278386;22;20086;-85
2023/10/27 07:28:08;;;;;;;29.92;12.75;;;8.80;99.90;;;;;;6278544;22;20023;-86
2023/10/27 07:30:34;;;;;;;29.75;12.68;;;10.00;99.90;;;;;;6278999;22;20012;-86
2023/10/27 07:33:00;;;;;;;29.33;12.65;;;8.90;99.90;;;;;;6278243;22;20462;-86
2023/10/27 07:35:26;;;;;;;27.85;12.27;;;8.90;99.90;;;;;;6278731;22;20015;-86
2023/10/27 07:37:52;;;;;;;29.23;12.90;;;8.90;99.90;;;;;;6279057;22;20076;-86
2023/10/27 07:40:19;;;;;;;26.60;12.65;;;8.90;99.90;;;;;;6305797;22;20038;-86
2023/10/27 07:42:44;;;;;;;27.40;12.77;;;8.90;99.90;;;;;;6278517;22;20339;-86
2023/10/27 07:45:10;;;;;;;25.75;12.05;;;9.80;99.90;;;;;;6278939;22;20019;-86
2023/10/27 07:47:36;;;;;;;26.23;12.00;;;9.00;99.90;;;;;;6278262;22;20465;-86
2023/10/27 07:50:05;;;;;;;28.83;12.77;;;10.20;99.90;;;;;;6278733;22;20068;-86
2023/10/27 07:52:31;;;;;;;28.80;12.60;;;9.00;99.90;;;;;;6278188;22;20432;-86
2023/10/27 07:54:57;;;;;;;28.40;11.93;;;9.20;99.90;;;;;;6277598;22;20019;-86
2023/10/27 07:57:23;;;;;;;29.67;12.77;;;9.10;99.90;;;;;;6278456;22;20015;-86
2023/10/27 07:59:48;;;;;;;27.93;12.70;;;9.10;99.90;;;;;;6278328;22;20027;-86
2023/10/27 08:02:14;;;;;;;28.88;13.30;;;9.10;99.90;;;;;;6276991;22;20068;-86
2023/10/27 08:04:40;;;;;;;28.15;12.30;;;9.10;99.90;;;;;;6278645;22;20017;-85
2023/10/27 08:07:06;;;;;;;29.55;11.80;;;9.90;99.90;;;;;;6278464;22;20126;-85
2023/10/27 08:09:31;;;;;;;28.52;11.98;;;10.10;99.90;;;;;;6277608;22;20046;-84
2023/10/27 08:11:57;;;;;;;27.00;11.77;;;9.20;99.90;;;;;;6278379;22;20347;-84
2023/10/27 08:14:23;;;;;;;27.02;12.10;;;9.20;99.90;;;;;;6277955;22;20392;-85
2023/10/27 08:16:49;;;;;;;26.35;12.07;;;9.30;99.90;;;;;;6277612;22;20046;-84
2023/10/27 08:19:15;;;;;;;27.83;12.00;;;10.30;99.90;;;;;;6279685;22;20008;-86
2023/10/27 08:21:41;;;;;;;30.65;12.23;;;9.80;99.90;;;;;;6306707;22;20102;-85
2023/10/27 08:24:07;;;;;;;28.02;12.57;;;9.30;99.90;;;;;;6305663;22;20503;-84
2023/10/27 08:26:32;;;;;;;26.23;11.52;;;9.30;99.90;;;;;;6306001;22;20017;-84
2023/10/27 08:28:58;;;;;;;29.55;12.73;;;9.60;99.90;;;;;;6306903;22;20035;-85
2023/10/27 08:31:24;;;;;;;27.52;12.20;;;9.40;99.90;;;;;;6305224;22;20030;-84
2023/10/27 08:33:52;;;;;;;28.70;12.05;;;9.30;99.90;;;;;;6279309;22;20007;-84
2023/10/27 08:36:19;;;;;;;28.25;12.10;;;9.30;99.90;;;;;;6277387;22;20293;-84
2023/10/27 08:38:44;;;;;;;25.25;11.65;;;9.40;99.90;;;;;;6279388;22;20039;-85
2023/10/27 08:41:10;;;;;;;25.98;11.48;;;9.40;99.90;;;;;;6278912;22;20019;-85
2023/10/27 08:43:39;;;;;;;27.35;11.57;;;9.40;99.90;;;;;;6278163;22;20011;-84
2023/10/27 08:46:07;;;;;;;28.40;11.45;;;9.40;99.90;;;;;;6279094;22;20043;-85
2023/10/27 08:48:33;;;;;;;28.17;11.38;;;10.60;99.90;;;;;;6278772;22;20019;-84
2023/10/27 08:51:04;;;;;;;25.77;11.90;;;10.40;99.90;;;;;;6280337;22;20029;-85
2023/10/27 08:53:31;;;;;;;28.80;11.98;;;9.40;99.90;;;;;;6280371;22;20094;-85
2023/10/27 08:55:58;;;;;;;29.27;12.85;;;9.40;99.90;;;;;;6280741;22;20098;-85
2023/10/27 08:58:24;;;;;;;26.63;12.13;;;10.00;99.90;;;;;;6279461;22;20015;-85
2023/10/27 09:00:50;;;;;;;29.88;12.15;;;9.80;99.90;;;;;;6280674;22;20038;-85
2023/10/27 09:03:17;;;;;;;30.73;12.25;;;9.60;99.90;;;;;;6280336;22;20019;-85
2023/10/27 09:05:44;;;;;;;29.23;12.10;;;9.50;99.90;;;;;;6280127;22;20011;-90
2023/10/27 09:08:10;;;;;;;27.50;12.60;;;9.50;99.90;;;;;;6280839;22;20412;-85
2023/10/27 09:10:37;;;;;;;35.33;13.85;;;10.60;99.90;;;;;;6305411;22;20049;-84
2023/10/27 09:13:04;;;;;;;31.33;12.35;;;9.50;99.90;;;;;;6306830;22;20022;-82
2023/10/27 09:15:50;;;;;;;44.35;13.02;;;9.60;99.90;;;;;;6280392;22;20030;-85
2023/10/27 09:18:16;;;;;;;30.13;13.35;;;10.70;99.90;;;;;;6307281;22;20026;-82
2023/10/27 09:20:49;;;;;;;30.77;13.27;;;9.60;99.90;;;;;;6279497;22;20088;-83
2023/10/27 09:23:16;;;;;;;30.50;13.45;;;9.60;99.90;;;;;;6280275;22;20164;-84
2023/10/27 09:25:41;;;;;;;30.13;12.38;;;9.60;99.90;;;;;;6279411;22;20065;-83
2023/10/27 09:28:07;;;;;;;33.50;12.93;;;9.60;99.90;;;;;;6307932;22;20370;-83
2023/10/27 09:30:38;;;;;;;31.08;12.55;;;9.70;99.90;;;;;;6280347;22;20015;-83
2023/10/27 09:33:16;;;;;;;31.08;12.93;;;9.70;99.90;;;;;;6279446;22;20065;-83
2023/10/27 09:35:43;;;;;;;32.55;13.38;;;10.60;99.90;;;;;;6279069;22;20379;-83
2023/10/27 09:38:08;;;;;;;33.08;13.35;;;9.70;99.90;;;;;;6279998;22;20019;-83
2023/10/27 09:40:37;;;;;;;34.08;13.57;;;9.70;99.90;;;;;;6307114;22;20022;-84
2023/10/27 09:43:07;;;;;;;31.08;13.07;;;9.70;99.90;;;;;;6298531;22;20011;-84
2023/10/27 09:45:35;;;;;;;29.90;12.55;;;9.70;99.90;;;;;;6279827;22;20012;-83
2023/10/27 09:48:02;;;;;;;32.88;13.73;;;11.10;99.90;;;;;;6279002;22;20407;-84
2023/10/27 09:50:30;;;;;;;32.58;14.32;;;9.70;99.90;;;;;;6279768;22;20026;-84
2023/10/27 09:53:01;;;;;;;33.20;13.60;;;10.60;99.90;;;;;;6280104;22;20363;-85
2023/10/27 09:55:27;;;;;;;31.95;13.70;;;10.90;99.90;;;;;;6306278;22;20015;-84
2023/10/27 09:57:53;;;;;;;28.50;12.98;;;9.80;99.90;;;;;;6280183;22;20313;-85
2023/10/27 10:00:27;;;;;;;32.28;14.15;;;9.80;99.90;;;;;;6279348;22;20351;-82
2023/10/27 10:02:54;;;;;;;;;;;9.80;99.90;;;;;;6307003;22;20455;-82
2023/10/27 10:05:19;;;;;;;30.63;13.43;;;9.80;99.90;;;;;;6307434;22;19915;-82
2023/10/27 10:07:52;;;;;;;35.08;14.38;;;9.80;99.90;;;;;;6279040;22;20386;-81
2023/10/27 10:10:34;;;;;;;31.25;13.18;;;9.90;99.90;;;;;;6279500;22;20061;-81
2023/10/27 10:13:05;;;;;;;33.65;14.45;;;9.90;99.90;;;;;;6280135;22;20015;-83
2023/10/27 10:15:33;;;;;;;34.78;14.40;;;9.90;99.90;;;;;;6279090;22;20026;-85
2023/10/27 10:18:04;;;;;;;33.67;13.73;;;9.90;99.90;;;;;;6282384;22;20019;-85
2023/10/27 10:20:47;;;;;;;34.45;14.25;;;9.90;99.90;;;;;;6280290;22;20060;-84
2023/10/27 10:23:14;;;;;;;32.58;13.77;;;10.00;99.90;;;;;;6279127;22;20022;-86
2023/10/27 10:25:56;;;;;;;37.03;14.55;;;10.00;99.90;;;;;;6307584;22;20025;-85
2023/10/27 10:28:36;;;;;;;32.50;14.05;;;10.00;99.90;;;;;;6280032;22;20026;-85
2023/10/27 10:31:08;;;;;;;33.85;14.30;;;10.00;99.90;;;;;;6279146;22;20444;-84
2023/10/27 10:33:37;;;;;;;32.70;13.75;;;10.90;99.90;;;;;;6307332;22;20358;-84
2023/10/27 10:36:18;;;;;;;32.72;14.63;;;10.10;99.90;;;;;;6278311;22;20386;-84
2023/10/27 10:38:44;;;;;;;34.53;14.63;;;10.10;99.90;;;;;;6280200;22;20046;-83
2023/10/27 10:41:10;;;;;;;32.08;13.77;;;11.50;99.90;;;;;;6279202;22;20022;-87
2023/10/27 10:43:36;;;;;;;34.97;14.93;;;10.10;99.90;;;;;;6305884;22;20019;-86
2023/10/27 10:46:04;;;;;;;33.78;15.10;;;11.20;99.90;;;;;;6306996;22;20015;-85
2023/10/27 10:48:44;;;;;;;36.50;15.27;;;10.60;99.90;;;;;;6279390;22;20023;-85
2023/10/27 10:51:15;;;;;;;33.95;14.68;;;10.30;99.90;;;;;;6278319;22;20011;-85
2023/10/27 10:53:42;;;;;;;33.88;14.68;;;11.20;99.90;;;;;;6278838;22;20462;-86
2023/10/27 10:56:08;;;;;;;32.03;14.55;;;10.30;99.90;;;;;;6278828;22;20410;-86
2023/10/27 10:58:36;;;;;;;33.58;14.75;;;11.90;99.90;;;;;;6278224;22;20019;-86
2023/10/27 11:01:03;;;;;;;35.90;14.93;;;11.40;99.90;;;;;;6279369;22;20027;-85
2023/10/27 11:03:36;;;;;;;33.95;15.10;;;10.40;99.90;;;;;;6279256;22;20027;-86
2023/10/27 11:06:05;;;;;;;31.83;14.82;;;11.20;99.90;;;;;;6278567;22;20526;-86
2023/10/27 11:08:34;;;;;;;33.78;15.07;;;10.50;99.90;;;;;;6278908;22;20007;-85
2023/10/27 11:11:08;;;;;;;33.70;15.43;;;10.60;99.90;;;;;;6278477;22;20038;-86
2023/10/27 11:13:43;;;;;;;31.23;14.45;;;10.50;99.90;;;;;;6279059;22;20012;-85
2023/10/27 11:16:13;;;;;;;29.60;14.68;;;10.60;99.90;;;;;;6278804;22;20445;-87
2023/10/27 11:18:38;;;;;;;30.13;14.45;;;10.60;99.90;;;;;;6278409;22;20025;-86
2023/10/27 11:21:04;;;;;;;30.30;15.32;;;11.50;99.90;;;;;;6279612;22;20086;-85
2023/10/27 11:23:31;;;;;;;29.92;13.95;;;11.70;99.90;;;;;;6279204;22;20031;-85
2023/10/27 11:26:05;;;;;;;28.63;14.77;;;11.70;99.90;;;;;;6278455;22;20019;-85
2023/10/27 11:28:35;;;;;;;33.47;15.55;;;10.90;99.90;;;;;;6279476;22;20011;-85
2023/10/27 11:31:19;;;;;;;31.08;14.25;;;11.10;99.90;;;;;;6279375;22;20019;-85
2023/10/27 11:34:04;;;;;;;32.65;15.55;;;10.50;99.90;;;;;;6305988;22;20023;-85
2023/10/27 11:36:33;;;;;;;34.20;14.35;;;10.50;99.90;;;;;;6278508;22;20030;-85
2023/10/27 11:39:18;;;;;;;30.75;14.10;;;11.50;99.90;;;;;;6306716;22;20019;-85
2023/10/27 11:41:50;;;;;;;31.15;14.52;;;11.70;99.90;;;;;;6279339;22;20015;-85
2023/10/27 11:44:17;;;;;;;33.42;14.82;;;10.50;99.90;;;;;;6279082;22;20019;-85
2023/10/27 11:46:50;;;;;;;30.92;14.20;;;11.80;99.90;;;;;;6306005;22;20329;-84
2023/10/27 11:49:16;;;;;;;31.52;15.25;;;11.80;99.90;;;;;;6279253;22;20040;-84
2023/10/27 11:51:46;;;;;;;31.13;14.52;;;11.60;99.90;;;;;;6279098;22;20026;-84
2023/10/27 11:54:12;;;;;;;32.83;14.98;;;11.10;99.90;;;;;;6277707;22;20026;-85
2023/10/27 11:56:38;;;;;;;29.73;14.93;;;11.50;99.90;;;;;;6279005;22;20378;-85
2023/10/27 11:59:05;;;;;;;29.75;13.98;;;11.20;99.90;;;;;;6273432;22;20502;-85
2023/10/27 12:01:31;;;;;;;28.70;13.48;;;11.70;99.90;;;;;;6274570;22;20020;-86
2023/10/27 12:03:56;;;;;;;35.13;14.80;;;10.50;99.90;;;;;;6275302;22;20073;-86
2023/10/27 12:06:22;;;;;;;29.63;14.05;;;11.90;99.90;;;;;;6273556;22;20478;-86
2023/10/27 12:08:48;;;;;;;28.85;14.15;;;10.30;99.90;;;;;;6273337;22;20014;-87
2023/10/27 12:11:17;;;;;;;31.02;14.60;;;11.60;99.90;;;;;;6275163;22;20054;-87
2023/10/27 12:13:43;;;;;;;32.83;15.07;;;10.40;99.90;;;;;;6276384;22;20047;-86
2023/10/27 12:16:09;;;;;;;34.63;14.95;;;11.40;99.90;;;;;;6274519;22;20317;-86
2023/10/27 12:18:34;;;;;;;29.77;13.45;;;10.50;99.90;;;;;;6274030;22;20054;-86
2023/10/27 12:21:01;;;;;;;31.95;14.65;;;11.10;99.90;;;;;;6273912;22;20484;-86
2023/10/27 12:23:30;;;;;;;35.40;14.23;;;11.50;99.90;;;;;;6272808;22;20015;-86
2023/10/27 12:26:03;;;;;;;30.25;14.00;;;11.60;99.90;;;;;;6276041;22;20055;-86
2023/10/27 12:28:29;;;;;;;29.38;13.45;;;10.40;99.90;;;;;;6274762;22;20046;-86
2023/10/27 12:30:58;;;;;;;30.70;14.20;;;10.50;99.90;;;;;;6275781;22;20468;-86
2023/10/27 12:33:23;;;;;;;32.50;14.20;;;11.60;99.90;;;;;;6277096;22;20016;-86